Accueil
METAR-TAF:

METAR-TAF

Aéroports :

Aéroport de Saragosse

Saragosse, Espagne

latitude: 41-40N, longitude: 001-01W, altitude: 263 m

Observation

Le bulletin a été fait il y a 16 minutes, à 09:30 UTC
Vent 13 kt de nord-ouest, variant entre ouest et nord/nord-ouest
Température 22°C
Humidité 50%
Pression 1014 hPa
Visibilité 10 km ou plus
pas de nuages en-dessous de 1500 mètres et pas de cumulonimbus.

METAR: LEZG 300930Z 31013KT 280V340 CAVOK 22/11 Q1014

Heure: 11:46 (09:46 UTC)

Prévision

Le bulletin a été fait il y a 4 heures et 46 minutes, à 05:00 UTC
Prévision valable du 30 à 06 UTC au 01 à 06 UTC
Vent 15 kt de nord-ouest
Visibilité 10 km ou plus
Quelques nuages à une hauteur de 6000 ft
Temporairement
du 30 à 08 UTC au 30 à 20 UTC
Vent 20 kt de nord-ouest avec des rafales jusqu'à 30 kt

TAF: LEZG 300500Z 3006/0106 31015KT 9999 FEW060 TX24/3015Z TN15/3006Z TEMPO 3008/3020 32020G30KT

Observations et prévisions météorologiques de plus de 4000 aéroports (messages METAR et TAF).

Les stations disponibles sont représentées par des disques jaunes et rouges sur la carte.

Passer la souris dessus pour voir le nom de la station.

Cliquer dessus pour voir les observations et prévisions météorologiques.

Pour changer de carte: cliquez sur les boutons verts avec une croix noire pour zoomer, sur le bouton vert avec un tiret pour effectuer un zoom arrière, ou sur les flèches vertes pour les cartes adjacentes.


METAR-TAF: